createdAt,value
2022-09-11T00:00:49.686Z,101146.25
2022-09-11T00:03:18.279Z,101141.63
2022-09-11T00:05:46.040Z,101142.69
2022-09-11T00:08:16.712Z,101143.50
2022-09-11T00:10:44.668Z,101142.69
2022-09-11T00:13:14.297Z,101122.81
2022-09-11T00:15:43.529Z,101130.53
2022-09-11T00:18:11.647Z,101146.44
2022-09-11T00:20:39.394Z,101143.72
2022-09-11T00:23:07.462Z,101151.91
2022-09-11T00:25:37.911Z,101149.19
2022-09-11T00:28:05.651Z,101137.78
2022-09-11T00:30:33.494Z,101153.00
2022-09-11T00:33:01.583Z,101149.66
2022-09-11T00:35:30.210Z,101155.75
2022-09-11T00:37:57.939Z,101152.19
2022-09-11T00:40:26.319Z,101161.22
2022-09-11T00:42:58.223Z,101161.22
2022-09-11T00:45:26.877Z,101154.06
2022-09-11T00:47:54.695Z,101138.38
2022-09-11T00:50:24.520Z,101140.16
2022-09-11T00:52:54.746Z,101155.25
2022-09-11T00:55:23.121Z,101173.22
2022-09-11T00:57:52.363Z,101164.19
2022-09-11T01:00:22.237Z,101175.13
2022-09-11T01:02:50.921Z,101164.28
2022-09-11T01:05:19.214Z,101169.66
2022-09-11T01:07:47.330Z,101170.50
2022-09-11T01:10:15.031Z,101169.66
2022-09-11T01:12:50.738Z,101174.06
2022-09-11T01:15:22.494Z,101178.69
2022-09-11T01:17:55.072Z,101184.16
2022-09-11T01:20:28.102Z,101187.97
2022-09-11T01:23:12.041Z,101179.75
2022-09-11T01:25:50.911Z,101186.28
2022-09-11T01:28:21.100Z,101182.50
2022-09-11T01:30:51.980Z,101189.03
2022-09-11T01:33:22.857Z,101186.28
2022-09-11T01:35:56.968Z,101188.19
2022-09-11T01:38:29.068Z,101194.50
2022-09-11T01:40:58.183Z,101192.81
2022-09-11T01:43:30.594Z,101190.22
2022-09-11T01:45:59.323Z,101197.47
2022-09-11T01:48:29.841Z,101211.13
2022-09-11T01:50:57.929Z,101198.16
2022-09-11T01:53:27.550Z,101111.84
2022-09-11T01:55:57.577Z,101220.19
2022-09-11T01:58:27.906Z,101198.66
2022-09-11T02:00:57.628Z,101210.34
2022-09-11T02:03:27.033Z,101199.94
2022-09-11T02:05:56.406Z,101187.91
2022-09-11T02:08:26.535Z,101210.56
2022-09-11T02:10:57.119Z,101223.75
2022-09-11T02:13:29.789Z,101202.69
2022-09-11T02:15:58.839Z,101222.09
2022-09-11T02:18:27.824Z,101218.16
2022-09-11T02:20:55.560Z,101222.09
2022-09-11T02:23:23.276Z,101217.44
2022-09-11T02:25:51.589Z,101222.09
2022-09-11T02:28:19.380Z,101222.09
2022-09-11T02:30:48.465Z,101221.28
2022-09-11T02:33:29.476Z,101182.78
2022-09-11T02:35:59.733Z,101230.53
2022-09-11T02:38:30.201Z,101228.66
2022-09-11T02:41:01.537Z,101192.31
2022-09-11T02:43:42.571Z,101230.53
2022-09-11T02:46:19.866Z,101227.81
2022-09-11T02:48:51.944Z,101226.97
2022-09-11T02:51:24.365Z,101198.50
2022-09-11T02:53:55.747Z,101229.72
2022-09-11T02:56:25.927Z,101231.59
2022-09-11T02:58:55.642Z,101234.34
2022-09-11T03:01:27.141Z,101229.94
2022-09-11T03:03:54.868Z,101235.41
2022-09-11T03:06:24.129Z,101206.91
2022-09-11T03:08:51.896Z,101248.00
2022-09-11T03:11:20.078Z,101242.53
2022-09-11T03:13:47.820Z,101241.72
2022-09-11T03:16:15.602Z,101248.00
2022-09-11T03:18:44.709Z,101248.84
2022-09-11T03:21:12.738Z,101240.66
2022-09-11T03:23:40.915Z,101241.47
2022-09-11T03:26:09.034Z,101248.84
2022-09-11T03:28:36.795Z,101249.69
2022-09-11T03:31:06.188Z,101258.97
2022-09-11T03:33:35.133Z,101251.59
2022-09-11T03:36:04.760Z,101260.63
2022-09-11T03:38:32.970Z,101259.78
2022-09-11T03:41:01.875Z,101259.78
2022-09-11T03:43:29.604Z,101257.06
2022-09-11T03:45:57.388Z,101260.03
2022-09-11T03:48:25.213Z,101255.38
2022-09-11T03:50:53.308Z,101260.84
2022-09-11T03:53:22.469Z,101261.69
2022-09-11T03:55:50.906Z,101258.97
2022-09-11T03:58:19.456Z,101261.69
2022-09-11T04:00:47.574Z,101273.47
2022-09-11T04:03:16.530Z,101263.59
2022-09-11T04:05:45.125Z,101158.28
2022-09-11T04:08:13.416Z,101260.84
2022-09-11T04:10:42.524Z,101258.97
2022-09-11T04:13:12.093Z,101264.66
2022-09-11T04:15:39.814Z,101264.44
2022-09-11T04:18:07.642Z,101266.31
2022-09-11T04:20:35.439Z,101271.78
2022-09-11T04:23:03.420Z,101275.38
2022-09-11T04:25:31.124Z,101270.97
2022-09-11T04:28:00.223Z,101271.78
2022-09-11T04:30:28.012Z,101277.25
2022-09-11T04:32:56.005Z,101276.22
2022-09-11T04:35:23.812Z,101280.00
2022-09-11T04:37:51.516Z,101283.56
2022-09-11T04:40:19.240Z,101287.16
2022-09-11T04:42:47.273Z,101285.25
2022-09-11T04:45:16.908Z,101284.41
2022-09-11T04:47:44.621Z,101283.56
2022-09-11T04:50:12.862Z,101278.94
2022-09-11T04:52:40.853Z,101292.63
2022-09-11T04:55:09.422Z,101284.41
2022-09-11T04:57:37.154Z,101290.72
2022-09-11T05:00:05.647Z,101291.78
2022-09-11T05:02:35.834Z,101281.06
2022-09-11T05:05:03.855Z,101285.47
2022-09-11T05:07:32.079Z,101292.84
2022-09-11T05:09:59.798Z,101303.56
2022-09-11T05:12:28.204Z,101293.69
2022-09-11T05:14:55.923Z,101301.88
2022-09-11T05:17:23.616Z,101299.16
2022-09-11T05:19:52.712Z,101304.63
2022-09-11T05:22:20.704Z,101310.09
2022-09-11T05:24:50.576Z,101317.47
2022-09-11T05:27:18.321Z,101315.56
2022-09-11T05:29:46.053Z,101319.13
2022-09-11T05:32:14.470Z,101315.56
2022-09-11T05:34:42.205Z,101323.53
2022-09-11T05:37:11.273Z,101321.03
2022-09-11T05:39:39.042Z,101326.28
2022-09-11T05:42:07.358Z,101332.81
2022-09-11T05:44:36.890Z,101335.56
2022-09-11T05:47:05.146Z,101341.84
2022-09-11T05:49:32.869Z,101350.06
2022-09-11T05:52:01.400Z,101347.31
2022-09-11T05:54:30.468Z,101346.25
2022-09-11T05:56:58.219Z,101351.97
2022-09-11T05:59:27.324Z,101355.53
2022-09-11T06:01:56.597Z,101363.75
2022-09-11T06:04:24.391Z,101361.00
2022-09-11T06:06:52.101Z,101358.72
2022-09-11T06:09:19.788Z,101368.38
2022-09-11T06:11:49.389Z,101367.31
2022-09-11T06:14:17.382Z,101367.53
2022-09-11T06:16:45.154Z,101373.22
2022-09-11T06:19:13.004Z,101374.91
2022-09-11T06:21:41.029Z,101373.00
2022-09-11T06:24:09.391Z,101370.50
2022-09-11T06:26:37.159Z,101376.56
2022-09-11T06:29:06.270Z,101377.63
2022-09-11T06:31:34.322Z,101380.38
2022-09-11T06:34:02.067Z,101370.28
2022-09-11T06:36:30.108Z,101383.94
2022-09-11T06:38:58.254Z,101377.03
2022-09-11T06:41:26.807Z,101394.66
2022-09-11T06:43:54.651Z,101384.78
2022-09-11T06:46:24.680Z,101387.53
2022-09-11T06:48:52.492Z,101385.63
2022-09-11T06:51:21.094Z,101387.53
2022-09-11T06:53:48.854Z,101399.28
2022-09-11T06:56:18.622Z,101404.78
2022-09-11T06:58:46.609Z,101398.09
2022-09-11T07:01:15.519Z,101397.63
2022-09-11T07:03:45.985Z,101393.81
2022-09-11T07:06:13.781Z,101404.78
2022-09-11T07:08:41.518Z,101401.91
2022-09-11T07:11:11.747Z,101413.19
2022-09-11T07:13:39.719Z,101401.19
2022-09-11T07:16:08.853Z,101411.31
2022-09-11T07:18:36.671Z,101407.72
2022-09-11T07:21:11.201Z,101409.63
2022-09-11T07:23:39.492Z,101401.50
2022-09-11T07:26:08.242Z,101409.84
2022-09-11T07:28:37.698Z,101410.47
2022-09-11T07:31:07.252Z,101407.72
2022-09-11T07:33:35.048Z,101415.94
2022-09-11T07:36:07.821Z,101415.09
2022-09-11T07:38:36.942Z,101422.72
2022-09-11T07:41:04.929Z,101418.53
2022-09-11T07:43:32.681Z,101426.88
2022-09-11T07:46:00.496Z,101420.56
2022-09-11T07:48:28.229Z,101419.38
2022-09-11T07:50:57.770Z,101424.13
2022-09-11T07:53:25.861Z,101424.97
2022-09-11T07:55:56.060Z,101434.25
2022-09-11T07:58:24.158Z,101434.03
2022-09-11T08:00:58.851Z,101434.03
2022-09-11T08:03:26.703Z,101417.91
2022-09-11T08:05:58.444Z,101435.91
2022-09-11T08:08:26.390Z,101428.78
2022-09-11T08:10:56.217Z,101438.66
2022-09-11T08:13:25.105Z,101442.66
2022-09-11T08:15:52.853Z,101439.72
2022-09-11T08:18:20.628Z,101450.44
2022-09-11T08:20:48.416Z,101433.72
2022-09-11T08:23:16.465Z,101458.03
2022-09-11T08:25:44.437Z,101467.91
2022-09-11T08:28:13.538Z,101453.94
2022-09-11T08:30:41.245Z,101467.91
2022-09-11T08:33:09.579Z,101478.84
2022-09-11T08:35:37.663Z,101476.13
2022-09-11T08:38:05.403Z,101476.94
2022-09-11T08:40:33.279Z,101479.69
2022-09-11T08:43:02.784Z,101487.88
2022-09-11T08:45:34.747Z,101491.47
2022-09-11T08:48:03.067Z,101489.78
2022-09-11T08:50:33.406Z,101492.53
2022-09-11T08:53:01.540Z,101493.84
2022-09-11T08:55:32.124Z,101498.84
2022-09-11T08:58:02.971Z,101496.09
2022-09-11T09:00:33.734Z,101497.16
2022-09-11T09:03:26.329Z,101491.69
2022-09-11T09:05:55.742Z,101483.31
2022-09-11T09:08:35.626Z,101504.31
2022-09-11T09:11:06.183Z,101502.63
2022-09-11T09:14:12.085Z,101506.19
2022-09-11T09:16:47.066Z,101511.47
2022-09-11T09:19:16.159Z,101484.69
2022-09-11T09:21:46.890Z,101515.47
2022-09-11T09:24:19.451Z,101515.25
2022-09-11T09:26:49.291Z,101523.44
2022-09-11T09:29:20.052Z,101520.72
2022-09-11T09:31:49.429Z,101513.56
2022-09-11T09:34:18.340Z,101509.16
2022-09-11T09:36:48.783Z,101513.56
2022-09-11T09:39:17.545Z,101519.88
2022-09-11T09:42:09.883Z,101523.66
2022-09-11T09:44:43.069Z,101421.22
2022-09-11T09:47:13.148Z,101520.09
2022-09-11T09:49:40.872Z,101515.47
2022-09-11T09:52:16.760Z,101518.19
2022-09-11T09:54:44.476Z,101517.81
2022-09-11T09:57:12.765Z,101522.84
2022-09-11T09:59:41.949Z,101526.41
2022-09-11T10:02:09.730Z,101520.94
2022-09-11T10:04:38.826Z,101512.72
2022-09-11T10:07:08.043Z,101511.88
2022-09-11T10:09:35.778Z,101515.47
2022-09-11T10:12:08.966Z,101513.56
2022-09-11T10:14:51.414Z,101515.25
2022-09-11T10:17:23.798Z,101517.97
2022-09-11T10:19:55.247Z,101526.19
2022-09-11T10:22:25.175Z,101524.28
2022-09-11T10:25:10.968Z,101525.34
2022-09-11T10:27:45.839Z,101533.34
2022-09-11T10:30:31.734Z,101522.63
2022-09-11T10:33:03.367Z,101518.44
2022-09-11T10:35:33.777Z,101523.44
2022-09-11T10:38:23.221Z,101491.44
2022-09-11T10:41:09.025Z,101464.31
2022-09-11T10:43:41.529Z,101517.16
2022-09-11T10:46:24.082Z,101515.25
2022-09-11T10:48:55.239Z,101517.16
2022-09-11T10:51:25.562Z,101519.03
2022-09-11T10:54:05.685Z,101515.72
2022-09-11T10:56:35.059Z,101509.00
2022-09-11T10:59:06.683Z,101519.03
2022-09-11T11:01:34.713Z,101520.09
2022-09-11T11:04:02.559Z,101521.78
2022-09-11T11:06:39.916Z,101514.41
2022-09-11T11:09:33.939Z,101519.25
2022-09-11T11:12:18.804Z,101518.19
2022-09-11T11:15:30.069Z,101497.22
2022-09-11T11:18:10.012Z,101481.81
2022-09-11T11:20:39.565Z,101514.41
2022-09-11T11:23:29.757Z,101501.19
2022-09-11T11:26:04.489Z,101494.75
2022-09-11T11:28:40.893Z,101509.78
2022-09-11T11:31:16.316Z,101508.72
2022-09-11T11:33:55.210Z,101506.81
2022-09-11T11:36:26.610Z,101505.97
2022-09-11T11:39:00.703Z,101509.56
2022-09-11T11:41:30.378Z,101489.84
2022-09-11T11:43:58.983Z,101501.34
2022-09-11T11:46:28.607Z,101493.75
2022-09-11T11:48:57.191Z,101507.66
2022-09-11T11:51:27.151Z,101512.03
2022-09-11T11:54:00.186Z,101511.25
2022-09-11T11:56:33.243Z,101493.22
2022-09-11T11:59:03.882Z,101500.34
2022-09-11T12:01:37.100Z,101515.41
2022-09-11T12:04:06.413Z,101495.88
2022-09-11T12:06:34.112Z,101504.22
2022-09-11T12:09:03.261Z,101490.25
2022-09-11T12:11:32.532Z,101507.56
2022-09-11T12:14:00.271Z,101501.25
2022-09-11T12:16:31.633Z,101510.28
2022-09-11T12:19:14.848Z,101488.94
2022-09-11T12:21:43.976Z,101506.53
2022-09-11T12:24:18.283Z,101507.38
2022-09-11T12:26:46.228Z,101499.34
2022-09-11T12:29:54.223Z,101506.91
2022-09-11T12:32:44.313Z,101499.78
2022-09-11T12:35:21.076Z,101486.63
2022-09-11T12:37:54.121Z,101494.31
2022-09-11T12:40:28.899Z,101459.19
2022-09-11T12:42:58.433Z,101495.38
2022-09-11T12:45:44.257Z,101489.72
2022-09-11T12:48:12.546Z,101485.09
2022-09-11T12:50:40.272Z,101484.66
2022-09-11T12:53:08.882Z,101486.75
2022-09-11T12:55:39.761Z,101471.94
2022-09-11T12:58:09.369Z,101481.28
2022-09-11T13:00:39.101Z,101480.19
2022-09-11T13:03:07.551Z,101484.03
2022-09-11T13:05:37.993Z,101474.97
2022-09-11T13:08:07.722Z,101473.09
2022-09-11T13:10:36.652Z,101463.19
2022-09-11T13:13:07.301Z,101463.19
2022-09-11T13:15:44.091Z,101455.00
2022-09-11T13:18:32.164Z,101452.25
2022-09-11T13:21:01.556Z,101444.75
2022-09-11T13:23:29.589Z,101442.38
2022-09-11T13:25:58.313Z,101445.09
2022-09-11T13:28:28.290Z,101446.78
2022-09-11T13:30:57.707Z,101450.59
2022-09-11T13:33:27.904Z,101326.50
2022-09-11T13:35:57.490Z,101442.16
2022-09-11T13:38:26.417Z,101402.81
2022-09-11T13:40:55.565Z,101427.63
2022-09-11T13:43:25.518Z,101435.84
2022-09-11T13:46:15.807Z,101431.66
2022-09-11T13:48:44.258Z,101429.53
2022-09-11T13:51:12.834Z,101424.91
2022-09-11T13:53:40.668Z,101427.63
2022-09-11T13:56:21.398Z,101425.47
2022-09-11T13:58:53.325Z,101415.63
2022-09-11T14:01:23.076Z,101421.91
2022-09-11T14:03:50.887Z,101421.09
2022-09-11T14:06:19.739Z,101422.16
2022-09-11T14:08:50.291Z,101414.78
2022-09-11T14:11:22.887Z,101417.28
2022-09-11T14:13:51.720Z,101418.16
2022-09-11T14:16:24.146Z,101336.47
2022-09-11T14:18:53.560Z,101409.06
2022-09-11T14:21:22.857Z,101396.88
2022-09-11T14:23:52.100Z,101406.97
2022-09-11T14:26:20.405Z,101403.00
2022-09-11T14:29:05.091Z,101402.13
2022-09-11T14:31:38.481Z,101374.97
2022-09-11T14:34:12.153Z,101402.94
2022-09-11T14:36:41.753Z,101402.72
2022-09-11T14:39:11.839Z,101389.88
2022-09-11T14:41:40.747Z,101389.03
2022-09-11T14:44:09.286Z,101371.72
2022-09-11T14:46:38.754Z,101383.34
2022-09-11T14:49:09.523Z,101392.16
2022-09-11T14:51:38.159Z,101364.28
2022-09-11T14:54:06.111Z,101381.78
2022-09-11T14:56:33.940Z,101378.84
2022-09-11T14:59:01.666Z,101373.59
2022-09-11T15:01:29.801Z,101377.53
2022-09-11T15:03:59.333Z,101336.38
2022-09-11T15:06:27.053Z,101372.06
2022-09-11T15:08:54.788Z,101375.63
2022-09-11T15:11:22.858Z,101361.09
2022-09-11T15:14:13.438Z,101364.69
2022-09-11T15:16:38.286Z,101359.22
2022-09-11T15:19:07.370Z,101357.53
2022-09-11T15:21:37.582Z,101360.25
2022-09-11T15:24:06.365Z,101355.06
2022-09-11T15:26:34.382Z,101352.31
2022-09-11T15:29:02.126Z,101341.09
2022-09-11T15:31:30.218Z,101351.47
2022-09-11T15:33:58.299Z,101355.06
2022-09-11T15:36:29.771Z,101355.06
2022-09-11T15:38:57.499Z,101317.25
2022-09-11T15:41:27.961Z,101350.16
2022-09-11T15:43:55.694Z,101349.31
2022-09-11T15:46:24.350Z,101337.31
2022-09-11T15:48:52.116Z,101342.78
2022-09-11T15:51:20.428Z,101340.06
2022-09-11T15:53:49.543Z,101337.09
2022-09-11T15:56:18.679Z,101343.41
2022-09-11T15:58:48.183Z,101345.06
2022-09-11T16:01:18.767Z,101336.03
2022-09-11T16:03:50.332Z,101329.72
2022-09-11T16:06:18.199Z,101340.06
2022-09-11T16:08:45.949Z,101335.41
2022-09-11T16:11:15.498Z,101335.41
2022-09-11T16:13:43.435Z,101340.88
2022-09-11T16:16:11.323Z,101339.00
2022-09-11T16:18:39.462Z,101339.81
2022-09-11T16:21:07.591Z,101339.81
2022-09-11T16:23:36.075Z,101334.34
2022-09-11T16:26:04.451Z,101329.34
2022-09-11T16:28:35.288Z,101318.28
2022-09-11T16:31:04.513Z,101332.44
2022-09-11T16:33:32.316Z,101339.81
2022-09-11T16:36:01.642Z,101333.28
2022-09-11T16:38:30.104Z,101327.81
2022-09-11T16:41:04.750Z,101324.25
2022-09-11T16:43:32.533Z,101325.09
2022-09-11T16:46:02.193Z,101325.66
2022-09-11T16:48:30.138Z,101318.53
2022-09-11T16:50:57.951Z,101314.97
2022-09-11T16:53:26.587Z,101320.44
2022-09-11T16:55:54.509Z,101303.50
2022-09-11T16:58:22.326Z,101319.13
2022-09-11T17:00:50.112Z,101320.81
2022-09-11T17:03:19.314Z,101323.53
2022-09-11T17:05:47.967Z,101321.63
2022-09-11T17:08:15.867Z,101304.72
2022-09-11T17:10:44.835Z,101320.56
2022-09-11T17:13:12.643Z,101315.09
2022-09-11T17:15:40.480Z,101315.09
2022-09-11T17:18:08.416Z,101310.06
2022-09-11T17:20:37.739Z,101310.47
2022-09-11T17:23:06.512Z,101314.03
2022-09-11T17:25:35.101Z,101305.81
2022-09-11T17:28:03.381Z,101312.09
2022-09-11T17:30:31.145Z,101305.00
2022-09-11T17:32:59.288Z,101310.22
2022-09-11T17:35:27.025Z,101304.72
2022-09-11T17:37:56.118Z,101311.53
2022-09-11T17:40:23.853Z,101320.09
2022-09-11T17:42:52.962Z,101324.72
2022-09-11T17:45:20.806Z,101313.44
2022-09-11T17:47:48.613Z,101312.38
2022-09-11T17:50:16.474Z,101312.94
2022-09-11T17:52:44.465Z,101309.38
2022-09-11T17:55:13.559Z,101317.59
2022-09-11T17:57:44.295Z,101322.00
2022-09-11T18:00:13.537Z,101314.84
2022-09-11T18:02:41.540Z,101316.50
2022-09-11T18:05:09.496Z,101312.72
2022-09-11T18:07:37.441Z,101317.13
2022-09-11T18:10:05.820Z,101316.28
2022-09-11T18:12:35.382Z,101306.06
2022-09-11T18:15:03.746Z,101314.38
2022-09-11T18:17:32.018Z,101315.69
2022-09-11T18:19:59.757Z,101324.28
2022-09-11T18:22:29.739Z,101321.53
2022-09-11T18:24:59.871Z,101331.41
2022-09-11T18:27:29.781Z,101330.59
2022-09-11T18:29:59.940Z,101330.59
2022-09-11T18:32:27.748Z,101331.41
2022-09-11T18:35:00.121Z,101322.38
2022-09-11T18:37:28.019Z,101322.38
2022-09-11T18:39:55.776Z,101331.41
2022-09-11T18:42:23.827Z,101330.59
2022-09-11T18:44:51.623Z,101318.41
2022-09-11T18:47:22.113Z,101323.19
2022-09-11T18:49:51.525Z,101318.53
2022-09-11T18:52:23.958Z,101314.16
2022-09-11T18:54:54.448Z,101283.28
2022-09-11T18:57:22.170Z,101316.91
2022-09-11T18:59:52.122Z,101318.53
2022-09-11T19:02:21.526Z,101315.22
2022-09-11T19:04:49.660Z,101316.66
2022-09-11T19:07:17.447Z,101310.34
2022-09-11T19:09:46.199Z,101311.88
2022-09-11T19:12:16.239Z,101314.75
2022-09-11T19:14:44.270Z,101324.63
2022-09-11T19:17:12.127Z,101320.00
2022-09-11T19:19:41.475Z,101321.06
2022-09-11T19:22:09.467Z,101330.09
2022-09-11T19:24:37.283Z,101328.19
2022-09-11T19:27:05.396Z,101324.41
2022-09-11T19:29:33.380Z,101320.22
2022-09-11T19:32:02.585Z,101320.56
2022-09-11T19:34:31.120Z,101322.50
2022-09-11T19:37:00.375Z,101327.97
2022-09-11T19:39:28.673Z,101329.63
2022-09-11T19:41:56.680Z,101330.72
2022-09-11T19:44:25.201Z,101321.28
2022-09-11T19:46:56.215Z,101326.31
2022-09-11T19:49:24.053Z,101331.53
2022-09-11T19:51:52.738Z,101307.81
2022-09-11T19:54:22.406Z,101336.19
2022-09-11T19:56:50.988Z,101335.34
2022-09-11T19:59:18.690Z,101327.59
2022-09-11T20:01:46.815Z,101336.41
2022-09-11T20:04:15.774Z,101334.50
2022-09-11T20:12:00.621Z,101334.97
2022-09-11T20:14:29.274Z,101337.25
2022-09-11T20:16:57.008Z,101338.31
2022-09-11T20:19:25.039Z,101337.13
2022-09-11T20:21:53.241Z,101339.38
2022-09-11T20:24:21.117Z,101333.31
2022-09-11T20:26:48.941Z,101335.81
2022-09-11T20:29:18.165Z,101335.81
2022-09-11T20:31:48.494Z,101339.59
2022-09-11T20:34:17.021Z,101337.72
2022-09-11T20:36:44.768Z,101334.13
2022-09-11T20:39:12.820Z,101293.41
2022-09-11T20:41:40.558Z,101332.50
2022-09-11T20:44:08.510Z,101325.13
2022-09-11T20:46:37.755Z,101325.91
2022-09-11T20:49:05.603Z,101308.41
2022-09-11T20:51:33.699Z,101318.81
2022-09-11T20:54:01.524Z,101317.97
2022-09-11T20:56:29.426Z,101317.97
2022-09-11T20:58:57.523Z,101325.13
2022-09-11T21:01:26.361Z,101317.97
2022-09-11T21:03:56.646Z,101321.53
2022-09-11T21:06:26.277Z,101321.53
2022-09-11T21:08:55.379Z,101316.06
2022-09-11T21:11:23.545Z,101315.47
2022-09-11T21:13:51.384Z,101306.06
2022-09-11T21:16:19.706Z,101306.41
2022-09-11T21:18:48.756Z,101306.41
2022-09-11T21:21:18.510Z,101311.88
2022-09-11T21:23:46.336Z,101281.88
2022-09-11T21:26:15.570Z,101283.38
2022-09-11T21:28:43.470Z,101316.78
2022-09-11T21:31:12.925Z,101306.88
2022-09-11T21:33:40.985Z,101306.88
2022-09-11T21:36:09.152Z,101306.88
2022-09-11T21:38:38.279Z,101311.53
2022-09-11T21:41:07.375Z,101300.59
2022-09-11T21:43:35.305Z,101259.94
2022-09-11T21:46:03.135Z,101303.53
2022-09-11T21:48:35.485Z,101295.56
2022-09-11T21:51:07.932Z,101302.72
2022-09-11T21:53:35.724Z,101305.66
2022-09-11T21:56:05.387Z,101298.56
2022-09-11T21:58:33.252Z,101304.03
2022-09-11T22:01:03.983Z,101303.19
2022-09-11T22:03:31.765Z,101304.03
2022-09-11T22:05:59.499Z,101305.09
2022-09-11T22:08:27.210Z,101300.69
2022-09-11T22:10:55.051Z,101301.50
2022-09-11T22:13:24.163Z,101301.75
2022-09-11T22:15:52.039Z,101299.00
2022-09-11T22:18:19.989Z,101305.53
2022-09-11T22:20:47.820Z,101306.38
2022-09-11T22:23:15.995Z,101299.94
2022-09-11T22:25:43.740Z,101311.28
2022-09-11T22:28:11.779Z,101293.41
2022-09-11T22:30:43.203Z,101302.22
2022-09-11T22:33:11.236Z,101297.81
2022-09-11T22:35:38.956Z,101300.53
2022-09-11T22:38:06.669Z,101296.97
2022-09-11T22:40:34.465Z,101298.88
2022-09-11T22:43:02.609Z,101298.88
2022-09-11T22:45:30.346Z,101294.25
2022-09-11T22:47:59.485Z,101284.22
2022-09-11T22:50:27.461Z,101284.34
2022-09-11T22:52:55.339Z,101287.09
2022-09-11T22:55:23.079Z,101287.09
2022-09-11T22:57:50.909Z,101288.19
2022-09-11T23:00:18.980Z,101283.78
2022-09-11T23:02:46.959Z,101283.53
2022-09-11T23:05:33.674Z,101289.25
2022-09-11T23:08:01.387Z,101287.56
2022-09-11T23:10:29.098Z,101285.91
2022-09-11T23:12:57.203Z,101290.31
2022-09-11T23:15:24.919Z,101286.75
2022-09-11T23:17:52.619Z,101283.16
2022-09-11T23:20:22.192Z,101282.31
2022-09-11T23:22:50.180Z,101278.75
2022-09-11T23:25:18.068Z,101284.47
2022-09-11T23:27:46.548Z,101277.09
2022-09-11T23:30:14.309Z,101276.28
2022-09-11T23:32:42.296Z,101275.19
2022-09-11T23:35:10.821Z,101282.56
2022-09-11T23:37:43.519Z,101277.91
2022-09-11T23:40:13.077Z,101264.72
2022-09-11T23:42:41.162Z,101272.69
2022-09-11T23:45:13.046Z,101268.06
2022-09-11T23:47:40.750Z,101275.44
2022-09-11T23:50:09.473Z,101267.22
2022-09-11T23:52:39.619Z,101277.34
2022-09-11T23:55:08.110Z,101266.41
2022-09-11T23:57:35.801Z,101263.66
